sensor_id;sensor_type;location;lat;lon;timestamp;P1;durP1;ratioP1;P2;durP2;ratioP2
75649;SDS011;64245;51.282;22.494;2023-04-03T00:01:32;5.10;;;2.35;;
75649;SDS011;64245;51.282;22.494;2023-04-03T00:03:58;4.47;;;2.72;;
75649;SDS011;64245;51.282;22.494;2023-04-03T00:06:25;5.57;;;3.08;;
75649;SDS011;64245;51.282;22.494;2023-04-03T00:08:51;5.20;;;2.90;;
75649;SDS011;64245;51.282;22.494;2023-04-03T00:11:17;5.85;;;3.05;;
75649;SDS011;64245;51.282;22.494;2023-04-03T00:13:43;4.88;;;2.60;;
75649;SDS011;64245;51.282;22.494;2023-04-03T00:16:10;6.95;;;3.58;;
75649;SDS011;64245;51.282;22.494;2023-04-03T00:18:37;4.95;;;3.00;;
75649;SDS011;64245;51.282;22.494;2023-04-03T00:21:04;7.65;;;3.22;;
75649;SDS011;64245;51.282;22.494;2023-04-03T00:23:29;4.05;;;2.45;;
75649;SDS011;64245;51.282;22.494;2023-04-03T00:25:55;5.60;;;3.08;;
75649;SDS011;64245;51.282;22.494;2023-04-03T00:28:21;4.28;;;2.88;;
75649;SDS011;64245;51.282;22.494;2023-04-03T00:30:50;5.07;;;3.10;;
75649;SDS011;64245;51.282;22.494;2023-04-03T00:33:16;3.50;;;2.53;;
75649;SDS011;64245;51.282;22.494;2023-04-03T00:35:42;4.05;;;2.50;;
75649;SDS011;64245;51.282;22.494;2023-04-03T00:38:08;5.15;;;3.03;;
75649;SDS011;64245;51.282;22.494;2023-04-03T00:40:36;4.40;;;3.38;;
75649;SDS011;64245;51.282;22.494;2023-04-03T00:43:08;6.80;;;3.72;;
75649;SDS011;64245;51.282;22.494;2023-04-03T00:45:39;5.65;;;3.25;;
75649;SDS011;64245;51.282;22.494;2023-04-03T00:50:34;6.22;;;3.13;;
75649;SDS011;64245;51.282;22.494;2023-04-03T00:53:03;6.57;;;2.10;;
75649;SDS011;64245;51.282;22.494;2023-04-03T00:55:31;3.45;;;2.13;;
75649;SDS011;64245;51.282;22.494;2023-04-03T00:57:56;8.13;;;3.03;;
75649;SDS011;64245;51.282;22.494;2023-04-03T01:00:23;5.50;;;3.40;;
75649;SDS011;64245;51.282;22.494;2023-04-03T01:02:50;5.13;;;2.90;;
75649;SDS011;64245;51.282;22.494;2023-04-03T01:05:17;3.20;;;2.00;;
75649;SDS011;64245;51.282;22.494;2023-04-03T01:07:44;6.10;;;3.50;;
75649;SDS011;64245;51.282;22.494;2023-04-03T01:10:11;4.50;;;2.38;;
75649;SDS011;64245;51.282;22.494;2023-04-03T01:12:40;3.72;;;2.53;;
75649;SDS011;64245;51.282;22.494;2023-04-03T01:15:09;4.22;;;2.40;;
75649;SDS011;64245;51.282;22.494;2023-04-03T01:17:47;5.03;;;3.08;;
75649;SDS011;64245;51.282;22.494;2023-04-03T01:25:34;2.72;;;2.05;;
75649;SDS011;64245;51.282;22.494;2023-04-03T01:28:02;4.47;;;2.40;;
75649;SDS011;64245;51.282;22.494;2023-04-03T01:30:31;7.28;;;3.08;;
75649;SDS011;64245;51.282;22.494;2023-04-03T01:32:59;7.03;;;3.03;;
75649;SDS011;64245;51.282;22.494;2023-04-03T01:35:25;3.42;;;2.10;;
75649;SDS011;64245;51.282;22.494;2023-04-03T01:37:51;4.18;;;2.47;;
75649;SDS011;64245;51.282;22.494;2023-04-03T01:40:16;4.20;;;2.80;;
75649;SDS011;64245;51.282;22.494;2023-04-03T01:42:42;4.50;;;2.30;;
75649;SDS011;64245;51.282;22.494;2023-04-03T01:45:08;5.80;;;2.90;;
75649;SDS011;64245;51.282;22.494;2023-04-03T01:47:34;3.38;;;1.80;;
75649;SDS011;64245;51.282;22.494;2023-04-03T01:50:00;4.43;;;2.67;;
75649;SDS011;64245;51.282;22.494;2023-04-03T01:52:25;5.93;;;3.13;;
75649;SDS011;64245;51.282;22.494;2023-04-03T01:54:51;4.03;;;2.72;;
75649;SDS011;64245;51.282;22.494;2023-04-03T01:57:17;3.00;;;2.17;;
75649;SDS011;64245;51.282;22.494;2023-04-03T01:59:43;4.22;;;2.30;;
75649;SDS011;64245;51.282;22.494;2023-04-03T02:02:08;4.45;;;2.20;;
75649;SDS011;64245;51.282;22.494;2023-04-03T02:04:34;4.80;;;2.67;;
75649;SDS011;64245;51.282;22.494;2023-04-03T02:07:00;2.47;;;1.33;;
75649;SDS011;64245;51.282;22.494;2023-04-03T02:09:25;2.38;;;1.63;;
75649;SDS011;64245;51.282;22.494;2023-04-03T02:11:52;2.75;;;1.30;;
75649;SDS011;64245;51.282;22.494;2023-04-03T02:14:18;2.80;;;1.67;;
75649;SDS011;64245;51.282;22.494;2023-04-03T02:16:43;2.80;;;1.75;;
75649;SDS011;64245;51.282;22.494;2023-04-03T02:19:09;3.50;;;1.77;;
75649;SDS011;64245;51.282;22.494;2023-04-03T02:21:35;3.72;;;1.95;;
75649;SDS011;64245;51.282;22.494;2023-04-03T02:24:01;5.10;;;2.65;;
75649;SDS011;64245;51.282;22.494;2023-04-03T02:26:26;6.95;;;2.80;;
75649;SDS011;64245;51.282;22.494;2023-04-03T02:28:52;3.53;;;2.00;;
75649;SDS011;64245;51.282;22.494;2023-04-03T02:31:17;4.78;;;2.25;;
75649;SDS011;64245;51.282;22.494;2023-04-03T02:33:43;8.80;;;2.85;;
75649;SDS011;64245;51.282;22.494;2023-04-03T02:36:09;4.63;;;3.03;;
75649;SDS011;64245;51.282;22.494;2023-04-03T02:38:35;5.63;;;2.78;;
75649;SDS011;64245;51.282;22.494;2023-04-03T02:41:02;5.20;;;3.13;;
75649;SDS011;64245;51.282;22.494;2023-04-03T02:43:29;2.92;;;2.22;;
75649;SDS011;64245;51.282;22.494;2023-04-03T02:45:55;5.78;;;2.78;;
75649;SDS011;64245;51.282;22.494;2023-04-03T02:48:21;4.65;;;2.80;;
75649;SDS011;64245;51.282;22.494;2023-04-03T02:50:47;4.70;;;2.70;;
75649;SDS011;64245;51.282;22.494;2023-04-03T02:53:13;5.25;;;2.50;;
75649;SDS011;64245;51.282;22.494;2023-04-03T02:55:38;1.95;;;1.73;;
75649;SDS011;64245;51.282;22.494;2023-04-03T02:58:04;4.95;;;2.78;;
75649;SDS011;64245;51.282;22.494;2023-04-03T03:00:30;2.97;;;2.38;;
75649;SDS011;64245;51.282;22.494;2023-04-03T03:02:56;3.22;;;2.10;;
75649;SDS011;64245;51.282;22.494;2023-04-03T03:05:22;4.55;;;2.42;;
75649;SDS011;64245;51.282;22.494;2023-04-03T03:07:47;1.77;;;0.95;;
75649;SDS011;64245;51.282;22.494;2023-04-03T03:10:13;3.67;;;1.90;;
75649;SDS011;64245;51.282;22.494;2023-04-03T03:12:39;3.10;;;1.58;;
75649;SDS011;64245;51.282;22.494;2023-04-03T03:15:05;3.13;;;1.60;;
75649;SDS011;64245;51.282;22.494;2023-04-03T03:17:32;2.47;;;1.33;;
75649;SDS011;64245;51.282;22.494;2023-04-03T03:19:58;2.72;;;1.25;;
75649;SDS011;64245;51.282;22.494;2023-04-03T03:22:24;0.73;;;0.45;;
75649;SDS011;64245;51.282;22.494;2023-04-03T03:24:49;1.83;;;1.05;;
75649;SDS011;64245;51.282;22.494;2023-04-03T03:27:15;2.88;;;1.52;;
75649;SDS011;64245;51.282;22.494;2023-04-03T03:29:41;4.57;;;2.22;;
75649;SDS011;64245;51.282;22.494;2023-04-03T03:32:07;2.90;;;1.20;;
75649;SDS011;64245;51.282;22.494;2023-04-03T03:34:33;4.22;;;1.90;;
75649;SDS011;64245;51.282;22.494;2023-04-03T03:36:59;4.03;;;1.40;;
75649;SDS011;64245;51.282;22.494;2023-04-03T03:39:24;1.92;;;0.88;;
75649;SDS011;64245;51.282;22.494;2023-04-03T03:41:51;3.85;;;1.25;;
75649;SDS011;64245;51.282;22.494;2023-04-03T03:44:18;3.08;;;1.25;;
75649;SDS011;64245;51.282;22.494;2023-04-03T03:46:45;2.45;;;1.15;;
75649;SDS011;64245;51.282;22.494;2023-04-03T03:49:10;1.73;;;0.80;;
75649;SDS011;64245;51.282;22.494;2023-04-03T03:51:37;1.25;;;0.28;;
75649;SDS011;64245;51.282;22.494;2023-04-03T03:54:04;4.47;;;1.15;;
75649;SDS011;64245;51.282;22.494;2023-04-03T03:56:30;5.40;;;1.00;;
75649;SDS011;64245;51.282;22.494;2023-04-03T03:58:56;1.55;;;0.90;;
75649;SDS011;64245;51.282;22.494;2023-04-03T04:01:22;1.67;;;1.02;;
75649;SDS011;64245;51.282;22.494;2023-04-03T04:03:49;3.58;;;1.02;;
75649;SDS011;64245;51.282;22.494;2023-04-03T04:06:15;1.75;;;0.70;;
75649;SDS011;64245;51.282;22.494;2023-04-03T04:08:40;6.07;;;1.52;;
75649;SDS011;64245;51.282;22.494;2023-04-03T04:11:07;1.05;;;0.90;;
75649;SDS011;64245;51.282;22.494;2023-04-03T04:13:33;2.20;;;0.88;;
75649;SDS011;64245;51.282;22.494;2023-04-03T04:15:59;1.75;;;0.80;;
75649;SDS011;64245;51.282;22.494;2023-04-03T04:18:24;1.75;;;1.05;;
75649;SDS011;64245;51.282;22.494;2023-04-03T04:20:50;2.13;;;1.20;;
75649;SDS011;64245;51.282;22.494;2023-04-03T04:23:17;1.88;;;0.68;;
75649;SDS011;64245;51.282;22.494;2023-04-03T04:25:44;1.17;;;0.50;;
75649;SDS011;64245;51.282;22.494;2023-04-03T04:28:10;1.38;;;0.75;;
75649;SDS011;64245;51.282;22.494;2023-04-03T04:30:36;1.10;;;1.00;;
75649;SDS011;64245;51.282;22.494;2023-04-03T04:33:02;1.52;;;0.80;;
75649;SDS011;64245;51.282;22.494;2023-04-03T04:35:28;1.88;;;0.60;;
75649;SDS011;64245;51.282;22.494;2023-04-03T04:37:54;1.58;;;0.60;;
75649;SDS011;64245;51.282;22.494;2023-04-03T04:40:20;1.40;;;0.68;;
75649;SDS011;64245;51.282;22.494;2023-04-03T04:42:46;2.13;;;0.70;;
75649;SDS011;64245;51.282;22.494;2023-04-03T04:45:12;1.52;;;0.60;;
75649;SDS011;64245;51.282;22.494;2023-04-03T04:47:38;2.83;;;0.65;;
75649;SDS011;64245;51.282;22.494;2023-04-03T04:50:04;2.10;;;1.10;;
75649;SDS011;64245;51.282;22.494;2023-04-03T04:52:30;3.58;;;1.52;;
75649;SDS011;64245;51.282;22.494;2023-04-03T04:54:55;1.70;;;1.00;;
75649;SDS011;64245;51.282;22.494;2023-04-03T04:57:21;3.65;;;0.82;;
75649;SDS011;64245;51.282;22.494;2023-04-03T04:59:47;2.65;;;1.05;;
75649;SDS011;64245;51.282;22.494;2023-04-03T05:02:12;1.05;;;0.60;;
75649;SDS011;64245;51.282;22.494;2023-04-03T05:04:38;0.70;;;0.30;;
75649;SDS011;64245;51.282;22.494;2023-04-03T05:07:04;2.58;;;0.98;;
75649;SDS011;64245;51.282;22.494;2023-04-03T05:09:30;5.38;;;0.50;;
75649;SDS011;64245;51.282;22.494;2023-04-03T05:11:56;1.77;;;0.70;;
75649;SDS011;64245;51.282;22.494;2023-04-03T05:14:22;2.17;;;0.77;;
75649;SDS011;64245;51.282;22.494;2023-04-03T05:16:47;1.88;;;0.70;;
75649;SDS011;64245;51.282;22.494;2023-04-03T05:19:13;1.27;;;0.60;;
75649;SDS011;64245;51.282;22.494;2023-04-03T05:21:39;2.13;;;0.80;;
75649;SDS011;64245;51.282;22.494;2023-04-03T05:24:05;1.70;;;0.70;;
75649;SDS011;64245;51.282;22.494;2023-04-03T05:26:34;1.65;;;0.98;;
75649;SDS011;64245;51.282;22.494;2023-04-03T05:29:00;2.03;;;0.82;;
75649;SDS011;64245;51.282;22.494;2023-04-03T05:31:26;3.00;;;0.52;;
75649;SDS011;64245;51.282;22.494;2023-04-03T05:33:54;1.15;;;0.98;;
75649;SDS011;64245;51.282;22.494;2023-04-03T05:36:20;1.23;;;0.68;;
75649;SDS011;64245;51.282;22.494;2023-04-03T05:38:46;2.35;;;0.80;;
75649;SDS011;64245;51.282;22.494;2023-04-03T05:41:12;1.95;;;0.77;;
75649;SDS011;64245;51.282;22.494;2023-04-03T05:43:38;3.05;;;1.00;;
75649;SDS011;64245;51.282;22.494;2023-04-03T05:46:08;1.80;;;0.70;;
75649;SDS011;64245;51.282;22.494;2023-04-03T05:48:36;1.90;;;1.08;;
75649;SDS011;64245;51.282;22.494;2023-04-03T05:51:02;1.33;;;0.50;;
75649;SDS011;64245;51.282;22.494;2023-04-03T05:53:29;1.67;;;0.70;;
75649;SDS011;64245;51.282;22.494;2023-04-03T05:55:57;2.17;;;0.70;;
75649;SDS011;64245;51.282;22.494;2023-04-03T05:58:23;0.50;;;0.50;;
75649;SDS011;64245;51.282;22.494;2023-04-03T06:00:49;2.05;;;0.60;;
75649;SDS011;64245;51.282;22.494;2023-04-03T06:03:15;2.25;;;0.70;;
75649;SDS011;64245;51.282;22.494;2023-04-03T06:05:42;1.88;;;0.70;;
75649;SDS011;64245;51.282;22.494;2023-04-03T06:08:08;2.20;;;0.63;;
75649;SDS011;64245;51.282;22.494;2023-04-03T06:10:34;1.85;;;0.80;;
75649;SDS011;64245;51.282;22.494;2023-04-03T06:13:01;2.83;;;1.00;;
75649;SDS011;64245;51.282;22.494;2023-04-03T06:15:27;4.45;;;1.13;;
75649;SDS011;64245;51.282;22.494;2023-04-03T06:17:53;1.13;;;0.40;;
75649;SDS011;64245;51.282;22.494;2023-04-03T06:20:19;0.77;;;0.55;;
75649;SDS011;64245;51.282;22.494;2023-04-03T06:22:45;2.33;;;0.70;;
75649;SDS011;64245;51.282;22.494;2023-04-03T06:25:11;1.00;;;0.60;;
75649;SDS011;64245;51.282;22.494;2023-04-03T06:27:37;2.67;;;1.05;;
75649;SDS011;64245;51.282;22.494;2023-04-03T06:30:04;1.80;;;0.73;;
75649;SDS011;64245;51.282;22.494;2023-04-03T06:32:32;0.88;;;0.50;;
75649;SDS011;64245;51.282;22.494;2023-04-03T06:34:57;2.72;;;1.35;;
75649;SDS011;64245;51.282;22.494;2023-04-03T06:37:23;2.83;;;0.90;;
75649;SDS011;64245;51.282;22.494;2023-04-03T06:39:54;1.75;;;0.77;;
75649;SDS011;64245;51.282;22.494;2023-04-03T06:42:20;5.97;;;1.80;;
75649;SDS011;64245;51.282;22.494;2023-04-03T06:44:46;3.80;;;1.25;;
75649;SDS011;64245;51.282;22.494;2023-04-03T06:47:16;3.80;;;1.23;;
75649;SDS011;64245;51.282;22.494;2023-04-03T06:49:42;2.53;;;0.82;;
75649;SDS011;64245;51.282;22.494;2023-04-03T06:52:08;3.30;;;1.35;;
75649;SDS011;64245;51.282;22.494;2023-04-03T06:54:35;1.40;;;0.82;;
75649;SDS011;64245;51.282;22.494;2023-04-03T06:57:01;1.45;;;0.75;;
75649;SDS011;64245;51.282;22.494;2023-04-03T06:59:27;0.85;;;0.28;;
75649;SDS011;64245;51.282;22.494;2023-04-03T07:01:53;1.00;;;0.47;;
75649;SDS011;64245;51.282;22.494;2023-04-03T07:04:19;0.57;;;0.50;;
75649;SDS011;64245;51.282;22.494;2023-04-03T07:06:47;2.05;;;0.77;;
75649;SDS011;64245;51.282;22.494;2023-04-03T07:09:14;2.60;;;0.85;;
75649;SDS011;64245;51.282;22.494;2023-04-03T07:11:40;2.15;;;0.70;;
75649;SDS011;64245;51.282;22.494;2023-04-03T07:14:06;1.40;;;0.90;;
75649;SDS011;64245;51.282;22.494;2023-04-03T07:16:33;1.08;;;0.80;;
75649;SDS011;64245;51.282;22.494;2023-04-03T07:19:00;1.17;;;0.50;;
75649;SDS011;64245;51.282;22.494;2023-04-03T07:21:27;3.20;;;1.08;;
75649;SDS011;64245;51.282;22.494;2023-04-03T07:23:53;2.70;;;1.33;;
75649;SDS011;64245;51.282;22.494;2023-04-03T07:26:19;1.35;;;0.73;;
75649;SDS011;64245;51.282;22.494;2023-04-03T07:28:46;1.83;;;0.88;;
75649;SDS011;64245;51.282;22.494;2023-04-03T07:31:14;1.55;;;0.70;;
75649;SDS011;64245;51.282;22.494;2023-04-03T07:33:40;4.15;;;1.20;;
75649;SDS011;64245;51.282;22.494;2023-04-03T07:36:07;2.05;;;0.98;;
75649;SDS011;64245;51.282;22.494;2023-04-03T07:38:34;2.92;;;1.13;;
75649;SDS011;64245;51.282;22.494;2023-04-03T07:41:00;3.05;;;1.02;;
75649;SDS011;64245;51.282;22.494;2023-04-03T07:43:26;1.63;;;1.05;;
75649;SDS011;64245;51.282;22.494;2023-04-03T07:45:52;2.83;;;1.23;;
75649;SDS011;64245;51.282;22.494;2023-04-03T07:48:20;1.48;;;0.73;;
75649;SDS011;64245;51.282;22.494;2023-04-03T07:50:47;3.25;;;1.00;;
75649;SDS011;64245;51.282;22.494;2023-04-03T07:53:13;1.10;;;0.63;;
75649;SDS011;64245;51.282;22.494;2023-04-03T07:55:39;2.05;;;1.00;;
75649;SDS011;64245;51.282;22.494;2023-04-03T07:58:09;3.88;;;1.00;;
75649;SDS011;64245;51.282;22.494;2023-04-03T08:00:39;4.75;;;1.48;;
75649;SDS011;64245;51.282;22.494;2023-04-03T08:03:06;1.42;;;0.95;;
75649;SDS011;64245;51.282;22.494;2023-04-03T08:05:36;2.78;;;1.48;;
75649;SDS011;64245;51.282;22.494;2023-04-03T08:08:04;1.20;;;0.80;;
75649;SDS011;64245;51.282;22.494;2023-04-03T08:10:31;2.10;;;0.60;;
75649;SDS011;64245;51.282;22.494;2023-04-03T08:12:57;1.45;;;0.73;;
75649;SDS011;64245;51.282;22.494;2023-04-03T08:15:22;1.40;;;0.90;;
75649;SDS011;64245;51.282;22.494;2023-04-03T08:17:49;2.60;;;0.77;;
75649;SDS011;64245;51.282;22.494;2023-04-03T08:20:15;1.02;;;0.85;;
75649;SDS011;64245;51.282;22.494;2023-04-03T08:22:42;3.10;;;0.90;;
75649;SDS011;64245;51.282;22.494;2023-04-03T08:25:07;1.65;;;0.77;;
75649;SDS011;64245;51.282;22.494;2023-04-03T08:27:34;1.98;;;0.70;;
75649;SDS011;64245;51.282;22.494;2023-04-03T08:29:59;2.67;;;0.90;;
75649;SDS011;64245;51.282;22.494;2023-04-03T08:32:25;1.88;;;0.90;;
75649;SDS011;64245;51.282;22.494;2023-04-03T08:34:52;1.95;;;0.80;;
75649;SDS011;64245;51.282;22.494;2023-04-03T08:37:18;1.08;;;0.95;;
75649;SDS011;64245;51.282;22.494;2023-04-03T08:39:44;1.42;;;0.60;;
75649;SDS011;64245;51.282;22.494;2023-04-03T08:42:29;2.50;;;0.80;;
75649;SDS011;64245;51.282;22.494;2023-04-03T08:47:50;1.88;;;1.00;;
75649;SDS011;64245;51.282;22.494;2023-04-03T08:50:24;2.08;;;1.08;;
75649;SDS011;64245;51.282;22.494;2023-04-03T08:52:57;1.70;;;1.20;;
75649;SDS011;64245;51.282;22.494;2023-04-03T08:55:31;2.10;;;1.17;;
75649;SDS011;64245;51.282;22.494;2023-04-03T08:58:01;1.27;;;0.82;;
75649;SDS011;64245;51.282;22.494;2023-04-03T09:00:31;1.35;;;0.90;;
75649;SDS011;64245;51.282;22.494;2023-04-03T09:03:20;2.28;;;0.63;;
75649;SDS011;64245;51.282;22.494;2023-04-03T09:17:02;1.55;;;0.98;;
75649;SDS011;64245;51.282;22.494;2023-04-03T09:22:13;1.75;;;0.70;;
75649;SDS011;64245;51.282;22.494;2023-04-03T09:24:47;2.42;;;1.25;;
75649;SDS011;64245;51.282;22.494;2023-04-03T09:27:22;2.05;;;1.15;;
75649;SDS011;64245;51.282;22.494;2023-04-03T09:29:48;1.80;;;1.15;;
75649;SDS011;64245;51.282;22.494;2023-04-03T09:32:28;3.15;;;1.25;;
75649;SDS011;64245;51.282;22.494;2023-04-03T09:34:58;2.00;;;1.15;;
75649;SDS011;64245;51.282;22.494;2023-04-03T09:37:44;3.13;;;1.40;;
75649;SDS011;64245;51.282;22.494;2023-04-03T09:45:41;2.95;;;1.35;;
75649;SDS011;64245;51.282;22.494;2023-04-03T09:48:08;1.15;;;0.68;;
75649;SDS011;64245;51.282;22.494;2023-04-03T09:50:35;2.08;;;1.02;;
75649;SDS011;64245;51.282;22.494;2023-04-03T09:53:06;1.77;;;0.88;;
75649;SDS011;64245;51.282;22.494;2023-04-03T09:55:50;3.83;;;1.20;;
75649;SDS011;64245;51.282;22.494;2023-04-03T09:58:23;3.13;;;1.33;;
75649;SDS011;64245;51.282;22.494;2023-04-03T10:00:59;1.90;;;1.20;;
75649;SDS011;64245;51.282;22.494;2023-04-03T10:03:28;3.42;;;1.40;;
75649;SDS011;64245;51.282;22.494;2023-04-03T10:06:04;3.47;;;0.77;;
75649;SDS011;64245;51.282;22.494;2023-04-03T10:08:58;3.10;;;1.25;;
75649;SDS011;64245;51.282;22.494;2023-04-03T10:11:30;1.95;;;1.15;;
75649;SDS011;64245;51.282;22.494;2023-04-03T10:13:57;2.80;;;1.55;;
75649;SDS011;64245;51.282;22.494;2023-04-03T10:16:31;3.00;;;1.13;;
75649;SDS011;64245;51.282;22.494;2023-04-03T10:21:55;1.25;;;0.80;;
75649;SDS011;64245;51.282;22.494;2023-04-03T10:24:54;2.20;;;0.40;;
75649;SDS011;64245;51.282;22.494;2023-04-03T10:43:27;2.67;;;1.40;;
75649;SDS011;64245;51.282;22.494;2023-04-03T10:46:10;1.20;;;1.10;;
75649;SDS011;64245;51.282;22.494;2023-04-03T10:48:51;3.17;;;0.90;;
75649;SDS011;64245;51.282;22.494;2023-04-03T10:51:45;2.63;;;1.73;;
75649;SDS011;64245;51.282;22.494;2023-04-03T10:57:02;4.88;;;3.17;;
75649;SDS011;64245;51.282;22.494;2023-04-03T10:59:39;2.60;;;1.42;;
75649;SDS011;64245;51.282;22.494;2023-04-03T11:02:07;2.20;;;1.30;;
75649;SDS011;64245;51.282;22.494;2023-04-03T11:04:44;2.08;;;1.30;;
75649;SDS011;64245;51.282;22.494;2023-04-03T11:07:22;1.38;;;0.90;;
75649;SDS011;64245;51.282;22.494;2023-04-03T11:10:15;1.27;;;0.88;;
75649;SDS011;64245;51.282;22.494;2023-04-03T11:12:51;1.75;;;0.90;;
75649;SDS011;64245;51.282;22.494;2023-04-03T11:15:22;2.25;;;0.95;;
75649;SDS011;64245;51.282;22.494;2023-04-03T11:20:56;1.75;;;1.23;;
75649;SDS011;64245;51.282;22.494;2023-04-03T11:23:30;2.58;;;1.23;;
75649;SDS011;64245;51.282;22.494;2023-04-03T11:26:17;3.08;;;1.45;;
75649;SDS011;64245;51.282;22.494;2023-04-03T11:28:44;1.35;;;0.98;;
75649;SDS011;64245;51.282;22.494;2023-04-03T11:36:46;1.42;;;0.82;;
75649;SDS011;64245;51.282;22.494;2023-04-03T11:39:22;3.10;;;1.10;;
75649;SDS011;64245;51.282;22.494;2023-04-03T11:41:51;2.67;;;0.80;;
75649;SDS011;64245;51.282;22.494;2023-04-03T11:44:34;0.80;;;0.60;;
75649;SDS011;64245;51.282;22.494;2023-04-03T11:47:05;1.50;;;0.73;;
75649;SDS011;64245;51.282;22.494;2023-04-03T12:00:47;2.35;;;0.88;;
75649;SDS011;64245;51.282;22.494;2023-04-03T12:16:07;1.60;;;0.82;;
75649;SDS011;64245;51.282;22.494;2023-04-03T12:26:50;1.83;;;1.13;;
75649;SDS011;64245;51.282;22.494;2023-04-03T12:29:24;1.33;;;0.70;;
75649;SDS011;64245;51.282;22.494;2023-04-03T12:43:26;1.75;;;0.73;;
75649;SDS011;64245;51.282;22.494;2023-04-03T12:48:30;2.53;;;1.40;;
75649;SDS011;64245;51.282;22.494;2023-04-03T12:51:02;3.50;;;1.73;;
75649;SDS011;64245;51.282;22.494;2023-04-03T12:53:29;1.77;;;0.75;;
75649;SDS011;64245;51.282;22.494;2023-04-03T13:01:56;3.92;;;1.50;;
75649;SDS011;64245;51.282;22.494;2023-04-03T13:04:23;5.93;;;2.22;;
75649;SDS011;64245;51.282;22.494;2023-04-03T13:06:49;5.15;;;1.67;;
75649;SDS011;64245;51.282;22.494;2023-04-03T13:09:18;2.53;;;1.20;;
75649;SDS011;64245;51.282;22.494;2023-04-03T13:11:47;1.17;;;0.60;;
75649;SDS011;64245;51.282;22.494;2023-04-03T13:14:16;1.77;;;1.30;;
75649;SDS011;64245;51.282;22.494;2023-04-03T13:16:54;1.70;;;1.00;;
75649;SDS011;64245;51.282;22.494;2023-04-03T13:19:23;6.28;;;1.13;;
75649;SDS011;64245;51.282;22.494;2023-04-03T13:22:02;2.05;;;0.73;;
75649;SDS011;64245;51.282;22.494;2023-04-03T13:24:32;2.03;;;1.00;;
75649;SDS011;64245;51.282;22.494;2023-04-03T13:27:02;2.72;;;0.85;;
75649;SDS011;64245;51.282;22.494;2023-04-03T13:29:30;2.08;;;1.10;;
75649;SDS011;64245;51.282;22.494;2023-04-03T13:31:59;2.80;;;0.98;;
75649;SDS011;64245;51.282;22.494;2023-04-03T13:34:36;2.10;;;1.00;;
75649;SDS011;64245;51.282;22.494;2023-04-03T13:37:06;1.60;;;1.27;;
75649;SDS011;64245;51.282;22.494;2023-04-03T13:39:34;2.22;;;0.70;;
75649;SDS011;64245;51.282;22.494;2023-04-03T13:47:40;1.92;;;0.90;;
75649;SDS011;64245;51.282;22.494;2023-04-03T13:52:41;2.20;;;0.88;;
75649;SDS011;64245;51.282;22.494;2023-04-03T13:55:25;1.48;;;0.57;;
75649;SDS011;64245;51.282;22.494;2023-04-03T13:58:01;2.50;;;0.90;;
75649;SDS011;64245;51.282;22.494;2023-04-03T14:03:39;2.15;;;1.10;;
75649;SDS011;64245;51.282;22.494;2023-04-03T14:06:05;1.90;;;0.60;;
75649;SDS011;64245;51.282;22.494;2023-04-03T14:08:32;2.08;;;0.90;;
75649;SDS011;64245;51.282;22.494;2023-04-03T14:10:58;1.15;;;0.80;;
75649;SDS011;64245;51.282;22.494;2023-04-03T14:13:24;1.88;;;1.00;;
75649;SDS011;64245;51.282;22.494;2023-04-03T14:15:49;1.27;;;0.82;;
75649;SDS011;64245;51.282;22.494;2023-04-03T14:18:17;2.17;;;1.00;;
75649;SDS011;64245;51.282;22.494;2023-04-03T14:20:45;2.63;;;0.95;;
75649;SDS011;64245;51.282;22.494;2023-04-03T14:23:12;2.13;;;0.95;;
75649;SDS011;64245;51.282;22.494;2023-04-03T14:25:38;2.65;;;1.00;;
75649;SDS011;64245;51.282;22.494;2023-04-03T14:28:18;1.33;;;0.70;;
75649;SDS011;64245;51.282;22.494;2023-04-03T14:30:47;1.63;;;0.80;;
75649;SDS011;64245;51.282;22.494;2023-04-03T14:33:15;1.65;;;0.90;;
75649;SDS011;64245;51.282;22.494;2023-04-03T14:35:43;1.08;;;0.28;;
75649;SDS011;64245;51.282;22.494;2023-04-03T14:38:25;2.55;;;0.82;;
75649;SDS011;64245;51.282;22.494;2023-04-03T14:40:52;1.92;;;0.82;;
75649;SDS011;64245;51.282;22.494;2023-04-03T14:43:19;1.77;;;0.68;;
75649;SDS011;64245;51.282;22.494;2023-04-03T14:45:45;2.80;;;1.60;;
75649;SDS011;64245;51.282;22.494;2023-04-03T14:48:15;3.22;;;0.82;;
75649;SDS011;64245;51.282;22.494;2023-04-03T14:50:44;3.47;;;1.02;;
75649;SDS011;64245;51.282;22.494;2023-04-03T14:53:10;2.28;;;1.20;;
75649;SDS011;64245;51.282;22.494;2023-04-03T14:55:40;2.30;;;1.10;;
75649;SDS011;64245;51.282;22.494;2023-04-03T14:58:11;0.90;;;0.50;;
75649;SDS011;64245;51.282;22.494;2023-04-03T15:00:38;2.03;;;0.93;;
75649;SDS011;64245;51.282;22.494;2023-04-03T15:03:04;2.67;;;0.90;;
75649;SDS011;64245;51.282;22.494;2023-04-03T15:05:29;1.15;;;0.77;;
75649;SDS011;64245;51.282;22.494;2023-04-03T15:07:56;2.85;;;0.88;;
75649;SDS011;64245;51.282;22.494;2023-04-03T15:10:27;2.50;;;1.05;;
75649;SDS011;64245;51.282;22.494;2023-04-03T15:12:55;2.17;;;0.93;;
75649;SDS011;64245;51.282;22.494;2023-04-03T15:15:21;2.30;;;1.00;;
75649;SDS011;64245;51.282;22.494;2023-04-03T15:17:52;1.30;;;0.82;;
75649;SDS011;64245;51.282;22.494;2023-04-03T15:20:21;1.50;;;0.95;;
75649;SDS011;64245;51.282;22.494;2023-04-03T15:25:14;1.63;;;0.85;;
75649;SDS011;64245;51.282;22.494;2023-04-03T15:27:40;1.38;;;0.80;;
75649;SDS011;64245;51.282;22.494;2023-04-03T15:30:08;1.88;;;1.13;;
75649;SDS011;64245;51.282;22.494;2023-04-03T15:32:38;1.33;;;0.90;;
75649;SDS011;64245;51.282;22.494;2023-04-03T15:35:04;1.60;;;1.00;;
75649;SDS011;64245;51.282;22.494;2023-04-03T15:37:30;2.08;;;1.55;;
75649;SDS011;64245;51.282;22.494;2023-04-03T15:39:56;2.42;;;1.17;;
75649;SDS011;64245;51.282;22.494;2023-04-03T15:42:22;2.78;;;1.48;;
75649;SDS011;64245;51.282;22.494;2023-04-03T15:44:47;1.73;;;0.98;;
75649;SDS011;64245;51.282;22.494;2023-04-03T15:47:13;4.15;;;1.50;;
75649;SDS011;64245;51.282;22.494;2023-04-03T15:49:39;2.97;;;1.55;;
75649;SDS011;64245;51.282;22.494;2023-04-03T15:52:05;3.90;;;1.85;;
75649;SDS011;64245;51.282;22.494;2023-04-03T15:54:31;2.20;;;1.20;;
75649;SDS011;64245;51.282;22.494;2023-04-03T15:56:57;3.92;;;1.45;;
75649;SDS011;64245;51.282;22.494;2023-04-03T15:59:22;1.30;;;0.75;;
75649;SDS011;64245;51.282;22.494;2023-04-03T16:01:48;1.80;;;0.88;;
75649;SDS011;64245;51.282;22.494;2023-04-03T16:04:15;2.05;;;1.30;;
75649;SDS011;64245;51.282;22.494;2023-04-03T16:06:41;2.47;;;1.00;;
75649;SDS011;64245;51.282;22.494;2023-04-03T16:09:07;2.58;;;1.10;;
75649;SDS011;64245;51.282;22.494;2023-04-03T16:11:33;3.15;;;1.42;;
75649;SDS011;64245;51.282;22.494;2023-04-03T16:14:01;4.50;;;2.03;;
75649;SDS011;64245;51.282;22.494;2023-04-03T16:16:27;3.83;;;1.67;;
75649;SDS011;64245;51.282;22.494;2023-04-03T16:18:56;2.78;;;1.45;;
75649;SDS011;64245;51.282;22.494;2023-04-03T16:21:22;2.80;;;1.52;;
75649;SDS011;64245;51.282;22.494;2023-04-03T16:23:48;2.83;;;1.48;;
75649;SDS011;64245;51.282;22.494;2023-04-03T16:26:15;3.17;;;1.60;;
75649;SDS011;64245;51.282;22.494;2023-04-03T16:28:42;2.72;;;1.45;;
75649;SDS011;64245;51.282;22.494;2023-04-03T16:31:09;3.15;;;1.05;;
75649;SDS011;64245;51.282;22.494;2023-04-03T16:33:34;3.38;;;1.10;;
75649;SDS011;64245;51.282;22.494;2023-04-03T16:36:03;4.35;;;1.50;;
75649;SDS011;64245;51.282;22.494;2023-04-03T16:38:30;3.00;;;1.10;;
75649;SDS011;64245;51.282;22.494;2023-04-03T16:40:55;3.72;;;1.55;;
75649;SDS011;64245;51.282;22.494;2023-04-03T16:43:30;5.65;;;1.73;;
75649;SDS011;64245;51.282;22.494;2023-04-03T16:45:57;3.42;;;1.85;;